La Veta, CO (81055)

8:50 PM MDT on September 03, 2015 (GMT -0600)
E Francisco St. | | Change Station
CLOSE
Current Station
Personal Weather Station
Location: La Veta, CO
Elevation: 7031 ft
Nearby Weather Stations

Elev 7031 ft 37.51 °N, 105.01 °W | Updated 13 minutes ago

Overcast
Overcast
67.5 °F
Feels Like 67.5 °F
N
1.1
Wind Variable Wind from NNW

Today
High -- | Low -- °F
--% Chance of Precip.
Yesterday
High -- | Low -- °F
Precip. -- in
6:32 AM 7:26 PM
Waning Gibbous, 64% visible
Pressure 29.75 in
Visibility 10.0 miles
Clouds Clear
Dew Point 47 °F
Humidity 48%
Rainfall 0.00 in
Snow Depth Not available.
UV 0 out of 12
Pollen 10.80 out of 12
Air Quality Not available.
Flu Activity Not available.
METAR KTAD 040154Z AUTO 33012KT 10SM CLR 24/09 A2999 RMK AO2 SLP075 T02390089
Pressure 29.75 in
Visibility 10.0 miles
Clouds Clear
Dew Point 47 °F
Humidity 48%
Rainfall 0.00 in
Snow Depth Not available.
UV 0 out of 12
Pollen 10.80 out of 12
Air Quality Not available.
Flu Activity Not available.
METAR KTAD 040154Z AUTO 33012KT 10SM CLR 24/09 A2999 RMK AO2 SLP075 T02390089

10-Day Weather Forecast

×

Almanac

Astronomy

Sep. 03, 2015 Rise Set
Actual Time
Civil Twilight
Nautical Twilight
Astronomical Twilight
Moon
Length of Visible Light
Length of Day
Tomorrow will be .
, % of the Moon is Illuminated

Today's Extremes

State Highs State Lows

Community

WunderPhotos

Upload Photos

1,852,106 photos uploaded!

WunderBlogs® & News

Nearby

Air Quality

  Air Quality AQ Index Pollutant
Not available.

Snow Depth

Station Depth Elevation

Earthquake Activity

City Distance Mag. Time & Date
Minimum magnitude displayed is 2.5.

Coastal Water Temperatures

Place Temperature

Stations

Nearby Weather Stations

Station Location Temp. Windchill Dew Point Humidity Wind Precip. Elev Updated Type